Time;durP1;ratioP1;P1;durP2;ratioP2;P2;SDS_P1;SDS_P2;PMS_P1;PMS_P2;Temp;Humidity;BMP_temperature;BMP_pressure;BME280_temperature;BME280_humidity;BME280_pressure;Samples;Min_cycle;Max_cycle;Signal;HPM_P1;HPM_P2
2020/12/06 00:02:24;;;;;;;8.77;7.88;;;6.90;99.90;;;;;;5126031;27;20283;-73
2020/12/06 00:04:51;;;;;;;11.52;8.50;;;6.90;99.90;;;;;;5126163;27;20199;-73
2020/12/06 00:07:17;;;;;;;8.18;7.15;;;6.90;99.90;;;;;;5118166;27;20193;-73
2020/12/06 00:09:43;;;;;;;10.48;7.75;;;6.90;99.90;;;;;;5116315;27;20208;-74
2020/12/06 00:12:09;;;;;;;10.40;7.50;;;6.90;99.90;;;;;;5124814;27;20197;-73
2020/12/06 00:14:35;;;;;;;9.75;8.13;;;6.80;99.90;;;;;;5136016;27;20192;-72
2020/12/06 00:17:02;;;;;;;8.32;6.40;;;6.90;99.90;;;;;;5121734;27;20213;-72
2020/12/06 00:19:29;;;;;;;15.85;8.57;;;6.90;99.90;;;;;;5134689;27;20197;-72
2020/12/06 00:21:55;;;;;;;10.50;7.35;;;6.90;99.90;;;;;;5115398;28;20216;-73
2020/12/06 00:24:22;;;;;;;8.93;7.97;;;6.90;99.90;;;;;;5115387;27;20189;-73
2020/12/06 00:26:48;;;;;;;9.50;7.85;;;6.90;99.90;;;;;;5126103;27;20275;-73
2020/12/06 00:29:14;;;;;;;10.40;7.68;;;6.90;99.90;;;;;;5125309;27;20204;-73
2020/12/06 00:31:41;;;;;;;11.27;7.93;;;6.90;99.90;;;;;;5120244;27;20196;-73
2020/12/06 00:34:07;;;;;;;13.38;8.32;;;6.80;99.90;;;;;;5125369;27;20201;-73
2020/12/06 00:36:34;;;;;;;9.55;7.75;;;6.80;99.90;;;;;;5115249;27;20214;-73
2020/12/06 00:39:00;;;;;;;9.25;8.15;;;6.80;99.90;;;;;;5115153;28;20228;-73
2020/12/06 00:41:26;;;;;;;12.32;8.30;;;6.80;99.90;;;;;;5126242;27;20198;-73
2020/12/06 00:43:53;;;;;;;9.93;7.95;;;6.80;99.90;;;;;;5127275;27;20193;-73
2020/12/06 00:46:20;;;;;;;10.00;7.70;;;6.80;99.90;;;;;;5123125;27;20279;-72
2020/12/06 00:48:47;;;;;;;9.90;7.45;;;6.80;99.90;;;;;;5122200;27;20625;-72
2020/12/06 00:51:13;;;;;;;8.95;7.50;;;6.80;99.90;;;;;;5127124;27;20184;-72
2020/12/06 00:53:42;;;;;;;12.45;8.30;;;6.70;99.90;;;;;;5114999;27;20189;-72
2020/12/06 00:56:16;;;;;;;12.77;8.80;;;6.70;99.90;;;;;;5115796;27;20231;-73
2020/12/06 00:58:42;;;;;;;11.18;8.05;;;6.70;99.90;;;;;;5115112;28;20208;-73
2020/12/06 01:01:08;;;;;;;9.52;8.40;;;6.70;99.90;;;;;;5115018;27;20192;-74
2020/12/06 01:03:34;;;;;;;11.05;8.68;;;6.80;99.90;;;;;;5134199;27;20199;-73
2020/12/06 01:06:00;;;;;;;9.73;7.70;;;6.80;99.90;;;;;;5119960;27;20203;-73
2020/12/06 01:08:27;;;;;;;11.40;8.80;;;6.70;99.90;;;;;;5117230;27;20180;-73
2020/12/06 01:10:54;;;;;;;12.43;8.50;;;6.70;99.90;;;;;;5125121;27;20193;-73
2020/12/06 01:13:20;;;;;;;12.65;9.00;;;6.70;99.90;;;;;;5114697;27;20204;-73
2020/12/06 01:15:46;;;;;;;9.80;8.80;;;6.80;99.90;;;;;;5114580;28;20193;-73
2020/12/06 01:18:12;;;;;;;11.32;8.95;;;6.70;99.90;;;;;;5114303;27;20216;-73
2020/12/06 01:20:39;;;;;;;10.70;7.97;;;6.80;99.90;;;;;;5126197;27;20184;-73
2020/12/06 01:23:05;;;;;;;8.60;7.68;;;6.80;99.90;;;;;;5129910;27;20203;-73
2020/12/06 01:25:31;;;;;;;11.13;8.68;;;6.70;99.90;;;;;;5125386;27;20636;-73
2020/12/06 01:27:58;;;;;;;11.73;8.02;;;6.70;99.90;;;;;;5114289;28;20189;-73
2020/12/06 01:30:24;;;;;;;15.63;9.18;;;6.70;99.90;;;;;;5113999;28;20189;-73
2020/12/06 01:32:51;;;;;;;13.10;9.50;;;6.70;99.90;;;;;;5116301;27;20204;-73
2020/12/06 01:35:17;;;;;;;12.52;8.05;;;6.70;99.90;;;;;;5133787;27;20200;-73
2020/12/06 01:37:43;;;;;;;10.57;8.80;;;6.60;99.90;;;;;;5134255;27;20299;-73
2020/12/06 01:40:09;;;;;;;10.55;8.52;;;6.60;99.90;;;;;;5131090;27;20224;-73
2020/12/06 01:42:36;;;;;;;11.73;9.10;;;6.60;99.90;;;;;;5124869;27;20202;-72
2020/12/06 01:45:03;;;;;;;12.18;7.97;;;6.60;99.90;;;;;;5117135;27;20201;-72
2020/12/06 01:47:31;;;;;;;12.57;8.40;;;6.60;99.90;;;;;;5114398;27;20189;-72
2020/12/06 01:49:58;;;;;;;9.45;7.75;;;6.60;99.90;;;;;;5114057;27;20212;-72
2020/12/06 01:52:26;;;;;;;10.73;8.93;;;6.60;99.90;;;;;;5123220;27;20188;-72
2020/12/06 01:54:53;;;;;;;10.38;8.80;;;6.60;99.90;;;;;;5121798;27;20238;-72
2020/12/06 01:57:19;;;;;;;9.75;7.25;;;6.60;99.90;;;;;;5114253;27;20556;-72
2020/12/06 01:59:46;;;;;;;10.70;8.05;;;6.60;99.90;;;;;;5114575;27;20209;-72
2020/12/06 02:02:14;;;;;;;13.15;9.23;;;6.70;99.90;;;;;;5130375;27;20196;-72
2020/12/06 02:04:41;;;;;;;11.95;8.98;;;6.60;99.90;;;;;;5117957;27;20333;-72
2020/12/06 02:07:08;;;;;;;13.73;8.57;;;6.60;99.90;;;;;;5113682;28;20547;-72
2020/12/06 02:09:34;;;;;;;12.85;9.23;;;6.70;99.90;;;;;;5114373;27;20500;-72
2020/12/06 02:12:05;;;;;;;11.45;8.18;;;6.70;99.90;;;;;;5114769;27;20195;-72
2020/12/06 02:14:32;;;;;;;11.80;9.55;;;6.60;99.90;;;;;;5127336;27;20192;-72
2020/12/06 02:16:58;;;;;;;13.25;8.75;;;6.50;99.90;;;;;;5127991;27;20227;-72
2020/12/06 02:19:25;;;;;;;12.90;7.95;;;6.60;99.90;;;;;;5113471;28;20633;-72
2020/12/06 02:21:52;;;;;;;12.80;9.10;;;6.60;99.90;;;;;;5116800;27;20190;-72
2020/12/06 02:24:19;;;;;;;11.88;8.40;;;6.60;99.90;;;;;;5133946;27;20208;-72
2020/12/06 02:26:47;;;;;;;11.05;8.80;;;6.60;99.90;;;;;;5131112;27;20192;-72
2020/12/06 02:29:13;;;;;;;13.77;9.82;;;6.60;99.90;;;;;;5113132;28;20631;-72
2020/12/06 02:31:40;;;;;;;12.45;8.80;;;6.60;99.90;;;;;;5114808;27;20193;-72
2020/12/06 02:34:08;;;;;;;13.57;10.40;;;6.50;99.90;;;;;;5132153;27;20636;-72
2020/12/06 02:36:34;;;;;;;10.25;8.38;;;6.50;99.90;;;;;;5133860;27;22094;-73
2020/12/06 02:39:03;;;;;;;12.30;10.30;;;6.60;99.90;;;;;;5133126;27;20231;-73
2020/12/06 02:41:36;;;;;;;12.07;8.50;;;6.50;99.90;;;;;;5132185;27;20199;-72
2020/12/06 02:44:04;;;;;;;15.65;10.32;;;6.50;99.90;;;;;;5114333;27;20211;-72
2020/12/06 02:46:30;;;;;;;12.50;9.00;;;6.60;99.90;;;;;;5113034;28;20208;-73
2020/12/06 02:48:56;;;;;;;13.30;9.93;;;6.60;99.90;;;;;;5125366;27;20196;-73
2020/12/06 02:51:23;;;;;;;11.60;9.60;;;6.60;99.90;;;;;;5122837;27;20196;-73
2020/12/06 02:53:49;;;;;;;12.45;9.00;;;6.60;99.90;;;;;;5124144;27;20233;-73
2020/12/06 02:56:16;;;;;;;9.60;8.18;;;6.60;99.90;;;;;;5124722;27;20600;-73
2020/12/06 02:58:42;;;;;;;10.25;8.93;;;6.60;99.90;;;;;;5113149;28;20234;-73
2020/12/06 03:01:09;;;;;;;12.00;8.15;;;6.60;99.90;;;;;;5112158;27;20201;-73
2020/12/06 03:03:35;;;;;;;10.30;8.88;;;6.50;99.90;;;;;;5124967;27;20189;-72
2020/12/06 03:06:01;;;;;;;11.35;9.68;;;6.50;99.90;;;;;;5122006;27;20197;-72
2020/12/06 03:08:29;;;;;;;11.48;8.90;;;6.50;99.90;;;;;;5119334;27;20184;-72
2020/12/06 03:10:55;;;;;;;10.38;8.00;;;6.50;99.90;;;;;;5132705;27;20196;-73
2020/12/06 03:13:22;;;;;;;10.80;8.02;;;6.60;99.90;;;;;;5117674;27;20188;-74
2020/12/06 03:15:48;;;;;;;10.95;8.25;;;6.60;99.90;;;;;;5112211;28;20209;-73
2020/12/06 03:18:14;;;;;;;13.85;9.27;;;6.60;99.90;;;;;;5112027;28;20219;-72
2020/12/06 03:20:41;;;;;;;11.52;9.30;;;6.60;99.90;;;;;;5112206;28;20536;-72
2020/12/06 03:23:07;;;;;;;10.55;8.68;;;6.60;99.90;;;;;;5112172;28;20518;-73
2020/12/06 03:25:35;;;;;;;10.75;8.60;;;6.60;99.90;;;;;;5124129;27;20207;-73
2020/12/06 03:28:01;;;;;;;10.80;8.73;;;6.50;99.90;;;;;;5113232;27;20193;-73
2020/12/06 03:30:28;;;;;;;11.38;8.50;;;6.50;99.90;;;;;;5116604;28;20279;-73
2020/12/06 03:32:54;;;;;;;12.02;8.48;;;6.60;99.90;;;;;;5120238;27;20197;-73
2020/12/06 03:35:21;;;;;;;14.73;8.70;;;6.60;99.90;;;;;;5111844;28;20193;-72
2020/12/06 03:37:47;;;;;;;8.65;7.82;;;6.60;99.90;;;;;;5127809;27;20212;-73
2020/12/06 03:40:13;;;;;;;10.77;8.38;;;6.60;99.90;;;;;;5113584;28;20251;-73
2020/12/06 03:42:39;;;;;;;11.38;8.95;;;6.50;99.90;;;;;;5123626;27;20196;-73
2020/12/06 03:45:06;;;;;;;11.20;10.00;;;6.60;99.90;;;;;;5112145;28;20208;-73
2020/12/06 03:47:33;;;;;;;10.57;9.18;;;6.70;99.90;;;;;;5111863;28;20192;-73
2020/12/06 03:49:59;;;;;;;10.98;8.77;;;6.60;99.90;;;;;;5112056;28;20197;-73
2020/12/06 03:52:25;;;;;;;10.82;8.25;;;6.60;99.90;;;;;;5112396;28;20407;-73
2020/12/06 03:54:52;;;;;;;11.13;8.52;;;6.60;99.90;;;;;;5112115;28;20200;-73
2020/12/06 03:57:18;;;;;;;10.18;8.05;;;6.60;99.90;;;;;;5120000;28;20855;-72
2020/12/06 03:59:44;;;;;;;10.50;8.30;;;6.60;99.90;;;;;;5132525;27;20666;-72
2020/12/06 04:02:10;;;;;;;11.48;8.18;;;6.60;99.90;;;;;;5121562;27;20192;-71
2020/12/06 04:04:37;;;;;;;9.70;8.02;;;6.60;99.90;;;;;;5123085;27;20742;-73
2020/12/06 04:07:04;;;;;;;13.13;9.00;;;6.70;99.90;;;;;;5132324;27;20223;-72
2020/12/06 04:09:30;;;;;;;11.38;7.97;;;6.70;99.90;;;;;;5132442;27;20211;-73
2020/12/06 04:11:56;;;;;;;10.85;8.90;;;6.60;99.90;;;;;;5128447;27;20200;-72
2020/12/06 04:14:22;;;;;;;11.98;8.75;;;6.70;99.90;;;;;;5121977;27;20197;-72
2020/12/06 04:16:49;;;;;;;10.98;8.95;;;6.70;99.90;;;;;;5118823;28;20218;-72
2020/12/06 04:19:15;;;;;;;11.48;9.13;;;6.60;99.90;;;;;;5130858;27;20196;-72
2020/12/06 04:21:42;;;;;;;9.80;7.68;;;6.60;99.90;;;;;;5132230;27;20204;-72
2020/12/06 04:24:08;;;;;;;10.82;8.35;;;6.70;99.90;;;;;;5131438;27;20184;-72
2020/12/06 04:26:34;;;;;;;12.68;8.02;;;6.70;99.90;;;;;;5118892;27;20201;-72
2020/12/06 04:29:01;;;;;;;9.23;7.80;;;6.70;99.90;;;;;;5112121;28;20207;-72
2020/12/06 04:31:27;;;;;;;11.30;8.35;;;6.60;99.90;;;;;;5111847;28;20193;-72
2020/12/06 04:33:53;;;;;;;8.98;8.07;;;6.60;99.90;;;;;;5127227;28;20257;-72
2020/12/06 04:36:19;;;;;;;12.75;7.60;;;6.70;99.90;;;;;;5132648;27;20210;-72
2020/12/06 04:38:46;;;;;;;9.73;8.32;;;6.70;99.90;;;;;;5115519;27;20263;-72
2020/12/06 04:41:13;;;;;;;11.05;8.50;;;6.70;99.90;;;;;;5115442;28;20204;-72
2020/12/06 04:43:40;;;;;;;9.77;7.38;;;6.70;99.90;;;;;;5115503;27;20193;-72
2020/12/06 04:46:07;;;;;;;10.43;8.13;;;6.70;99.90;;;;;;5115545;28;20206;-73
2020/12/06 04:48:45;;;;;;;9.85;8.32;;;6.70;99.90;;;;;;5122954;27;20196;-73
2020/12/06 04:51:14;;;;;;;10.75;8.20;;;6.70;99.90;;;;;;5124830;27;20191;-72
2020/12/06 04:53:47;;;;;;;9.77;7.82;;;6.70;99.90;;;;;;5115337;28;20200;-72
2020/12/06 04:56:21;;;;;;;9.05;7.32;;;6.70;99.90;;;;;;5115087;27;20543;-72
2020/12/06 04:58:50;;;;;;;10.55;8.10;;;6.60;99.90;;;;;;5134625;27;20200;-72
2020/12/06 05:01:19;;;;;;;9.93;8.25;;;6.60;99.90;;;;;;5123820;27;20207;-72
2020/12/06 05:03:50;;;;;;;11.68;9.27;;;6.70;99.90;;;;;;5114916;28;20208;-72
2020/12/06 05:06:19;;;;;;;11.63;8.88;;;6.70;99.90;;;;;;5115055;27;20201;-72
2020/12/06 05:08:46;;;;;;;11.32;7.53;;;6.70;99.90;;;;;;5126242;27;20195;-72
2020/12/06 05:11:14;;;;;;;11.48;8.98;;;6.70;99.90;;;;;;5115908;27;20188;-72
2020/12/06 05:13:40;;;;;;;9.38;7.00;;;6.70;99.90;;;;;;5125496;27;20196;-72
2020/12/06 05:16:09;;;;;;;8.30;7.35;;;6.70;99.90;;;;;;5135155;27;20192;-72
2020/12/06 05:18:35;;;;;;;11.13;9.68;;;6.70;99.90;;;;;;5117364;27;20217;-72
2020/12/06 05:21:02;;;;;;;10.27;8.50;;;6.70;99.90;;;;;;5132961;27;20211;-72
2020/12/06 05:23:28;;;;;;;10.25;8.25;;;6.70;99.90;;;;;;5129586;27;20196;-72
2020/12/06 05:25:55;;;;;;;10.88;8.02;;;6.60;99.90;;;;;;5114537;27;20193;-72
2020/12/06 05:28:22;;;;;;;10.30;8.30;;;6.70;99.90;;;;;;5122345;27;20184;-73
2020/12/06 05:30:49;;;;;;;12.07;8.27;;;6.70;99.90;;;;;;5116558;27;20193;-72
2020/12/06 05:33:17;;;;;;;10.25;8.15;;;6.70;99.90;;;;;;5114187;28;20200;-73
2020/12/06 05:35:44;;;;;;;13.02;8.18;;;6.70;99.90;;;;;;5114130;28;20204;-72
2020/12/06 05:38:10;;;;;;;11.02;7.97;;;6.70;99.90;;;;;;5125018;27;20223;-72
2020/12/06 05:40:44;;;;;;;12.27;9.52;;;6.70;99.90;;;;;;5134282;27;20197;-72
2020/12/06 05:43:11;;;;;;;8.00;7.20;;;6.70;99.90;;;;;;5133265;27;20743;-72
2020/12/06 05:45:38;;;;;;;9.23;7.57;;;6.70;99.90;;;;;;5134973;27;20196;-72
2020/12/06 05:48:05;;;;;;;11.77;8.13;;;6.70;99.90;;;;;;5126029;27;20534;-72
2020/12/06 05:50:32;;;;;;;9.82;8.20;;;6.70;99.90;;;;;;5129825;27;20218;-72
2020/12/06 05:52:58;;;;;;;8.98;8.07;;;6.70;99.90;;;;;;5117570;27;20203;-72
2020/12/06 05:55:25;;;;;;;9.18;7.90;;;6.70;99.90;;;;;;5113852;28;20197;-73
2020/12/06 05:57:52;;;;;;;9.48;7.45;;;6.80;99.90;;;;;;5131956;27;20216;-73
2020/12/06 06:00:19;;;;;;;9.70;8.25;;;6.80;99.90;;;;;;5125047;27;20333;-72
2020/12/06 06:02:51;;;;;;;9.10;8.15;;;6.80;99.90;;;;;;5118240;27;20233;-73
2020/12/06 06:05:20;;;;;;;11.73;9.50;;;6.70;99.90;;;;;;5131516;27;20532;-72
2020/12/06 06:07:49;;;;;;;9.60;7.88;;;6.70;99.90;;;;;;5130843;27;20188;-73
2020/12/06 06:10:18;;;;;;;10.55;8.32;;;6.70;99.90;;;;;;5126358;27;20188;-73
2020/12/06 06:12:48;;;;;;;9.88;7.82;;;6.70;99.90;;;;;;5134520;27;20245;-73
2020/12/06 06:15:15;;;;;;;11.35;8.40;;;6.70;99.90;;;;;;5132835;27;20265;-73
2020/12/06 06:17:43;;;;;;;12.20;9.15;;;6.70;99.90;;;;;;5120781;27;20213;-73
2020/12/06 06:20:10;;;;;;;9.55;7.32;;;6.70;99.90;;;;;;5113092;28;20219;-73
2020/12/06 06:22:41;;;;;;;12.80;8.65;;;6.70;99.90;;;;;;5114293;27;20196;-73
2020/12/06 06:25:09;;;;;;;11.80;8.93;;;6.70;99.90;;;;;;5113876;27;20284;-73
2020/12/06 06:27:37;;;;;;;8.93;7.90;;;6.70;99.90;;;;;;5113442;27;20207;-73
2020/12/06 06:30:04;;;;;;;11.65;9.25;;;6.70;99.90;;;;;;5121322;27;20222;-73
2020/12/06 06:32:32;;;;;;;9.95;8.15;;;6.70;99.90;;;;;;5115799;27;20192;-73
2020/12/06 06:34:59;;;;;;;8.90;7.13;;;6.70;99.90;;;;;;5113434;27;20267;-71
2020/12/06 06:37:29;;;;;;;10.25;7.68;;;6.70;99.90;;;;;;5125453;27;20221;-72
2020/12/06 06:39:59;;;;;;;11.38;9.20;;;6.70;99.90;;;;;;5123644;27;20219;-71
2020/12/06 06:42:26;;;;;;;10.25;8.57;;;6.70;99.90;;;;;;5112975;28;20246;-71
2020/12/06 06:45:01;;;;;;;9.00;7.93;;;6.70;99.90;;;;;;5114005;27;20615;-71
2020/12/06 06:47:29;;;;;;;8.77;6.78;;;6.70;99.90;;;;;;5112767;28;20231;-71
2020/12/06 06:49:57;;;;;;;10.52;7.18;;;6.70;99.90;;;;;;5120635;27;20627;-71
2020/12/06 06:52:24;;;;;;;9.60;8.35;;;6.70;99.90;;;;;;5121747;27;20192;-72
2020/12/06 06:54:53;;;;;;;10.70;8.02;;;6.60;99.90;;;;;;5120354;27;20196;-73
2020/12/06 06:57:21;;;;;;;11.68;9.20;;;6.70;99.90;;;;;;5119857;27;20204;-73
2020/12/06 06:59:49;;;;;;;9.55;7.70;;;6.60;99.90;;;;;;5112297;27;20193;-73
2020/12/06 07:02:20;;;;;;;10.07;8.05;;;6.60;99.90;;;;;;5112354;28;20656;-72
2020/12/06 07:04:48;;;;;;;11.98;8.70;;;6.60;99.90;;;;;;5122683;27;20279;-72
2020/12/06 07:07:15;;;;;;;8.50;7.30;;;6.70;99.90;;;;;;5116803;27;20650;-71
2020/12/06 07:09:42;;;;;;;8.18;6.45;;;6.60;99.90;;;;;;5112750;27;20201;-72
2020/12/06 07:12:10;;;;;;;9.23;7.07;;;6.70;99.90;;;;;;5114077;27;20215;-71
2020/12/06 07:14:36;;;;;;;9.25;8.18;;;6.70;99.90;;;;;;5121710;27;20185;-71
2020/12/06 07:17:03;;;;;;;11.52;8.38;;;6.70;99.90;;;;;;5116920;27;20205;-71
2020/12/06 07:19:29;;;;;;;10.23;8.13;;;6.70;99.90;;;;;;5112231;28;20200;-71
2020/12/06 07:21:55;;;;;;;10.05;8.45;;;6.70;99.90;;;;;;5129680;27;20693;-71
2020/12/06 07:24:21;;;;;;;9.02;6.88;;;6.60;99.90;;;;;;5121662;27;20192;-71
2020/12/06 07:26:48;;;;;;;10.23;6.88;;;6.70;99.90;;;;;;5112790;28;20621;-71
2020/12/06 07:29:15;;;;;;;9.07;7.90;;;6.70;99.90;;;;;;5117475;27;20194;-71
2020/12/06 07:31:41;;;;;;;10.07;7.47;;;6.60;99.90;;;;;;5122878;27;20204;-71
2020/12/06 07:34:07;;;;;;;12.80;9.65;;;6.60;99.90;;;;;;5131102;27;20671;-72
2020/12/06 07:36:34;;;;;;;11.65;8.90;;;6.60;99.90;;;;;;5111856;28;20652;-70
2020/12/06 07:39:12;;;;;;;9.35;7.43;;;6.60;99.90;;;;;;5111384;28;20232;-72
2020/12/06 07:41:45;;;;;;;11.43;8.55;;;6.60;99.90;;;;;;5112211;28;20196;-72
2020/12/06 07:44:11;;;;;;;10.50;8.45;;;6.60;99.90;;;;;;5111013;28;20200;-72
2020/12/06 07:46:39;;;;;;;10.48;7.60;;;6.70;99.90;;;;;;5111267;28;20200;-72
2020/12/06 07:49:05;;;;;;;10.30;7.75;;;6.60;99.90;;;;;;5111790;28;20200;-72
2020/12/06 07:51:32;;;;;;;10.02;8.90;;;6.70;99.90;;;;;;5112303;28;20193;-71
2020/12/06 07:54:01;;;;;;;13.43;9.07;;;6.70;99.90;;;;;;5112640;28;20193;-72
2020/12/06 07:56:29;;;;;;;9.55;7.93;;;6.70;99.90;;;;;;5111444;28;20195;-72
2020/12/06 07:59:21;;;;;;;10.48;8.43;;;6.70;99.90;;;;;;5114550;28;20660;-72
2020/12/06 08:01:50;;;;;;;9.95;7.35;;;6.70;99.90;;;;;;5111852;28;20648;-73
2020/12/06 08:04:22;;;;;;;8.82;7.13;;;6.70;99.90;;;;;;5120733;28;20224;-73
2020/12/06 08:06:51;;;;;;;12.02;9.73;;;6.70;99.90;;;;;;5112255;28;20201;-73
2020/12/06 08:09:19;;;;;;;10.00;8.00;;;6.70;99.90;;;;;;5122553;28;20194;-73
2020/12/06 08:11:49;;;;;;;10.80;7.85;;;6.70;99.90;;;;;;5131273;27;20188;-72
2020/12/06 08:14:19;;;;;;;10.25;7.85;;;6.70;99.90;;;;;;5129721;27;20195;-73
2020/12/06 08:16:56;;;;;;;12.00;9.32;;;6.70;99.90;;;;;;5135251;27;20195;-73
2020/12/06 08:19:24;;;;;;;12.30;8.30;;;6.60;99.90;;;;;;5121025;27;20200;-73
2020/12/06 08:21:51;;;;;;;11.68;8.80;;;6.70;99.90;;;;;;5134899;27;20243;-73
2020/12/06 08:24:19;;;;;;;10.48;8.50;;;6.60;99.90;;;;;;5134940;27;20204;-74
2020/12/06 08:26:45;;;;;;;9.32;8.00;;;6.60;99.90;;;;;;5136494;27;20196;-74
2020/12/06 08:29:12;;;;;;;10.73;8.23;;;6.60;99.90;;;;;;5122637;27;20189;-74
2020/12/06 08:31:38;;;;;;;19.70;9.38;;;6.60;99.90;;;;;;5115001;28;20196;-73
2020/12/06 08:34:10;;;;;;;11.90;8.73;;;6.60;99.90;;;;;;5118000;27;20197;-74
2020/12/06 08:36:36;;;;;;;9.32;7.22;;;6.60;99.90;;;;;;5132084;27;20708;-74
2020/12/06 08:39:13;;;;;;;13.02;9.48;;;6.70;99.90;;;;;;5135989;27;20231;-74
2020/12/06 08:41:40;;;;;;;11.80;9.25;;;6.80;99.90;;;;;;5123940;27;20199;-74
2020/12/06 08:44:06;;;;;;;10.10;8.45;;;6.70;99.90;;;;;;5135680;27;20200;-74
2020/12/06 08:46:33;;;;;;;14.73;9.85;;;6.70;99.90;;;;;;5128164;27;20624;-74
2020/12/06 08:49:01;;;;;;;9.70;8.32;;;6.70;99.90;;;;;;5132496;27;20184;-74
2020/12/06 08:51:31;;;;;;;9.82;8.25;;;6.80;99.90;;;;;;5116722;27;20223;-71
2020/12/06 08:53:58;;;;;;;9.75;7.53;;;6.70;99.90;;;;;;5118135;27;20192;-72
2020/12/06 08:56:26;;;;;;;8.27;7.47;;;6.70;99.90;;;;;;5134201;27;20196;-72
2020/12/06 08:58:52;;;;;;;14.13;9.98;;;6.80;99.90;;;;;;5127460;27;20208;-72
2020/12/06 09:01:19;;;;;;;10.80;8.30;;;6.80;99.90;;;;;;5115912;27;20199;-72
2020/12/06 09:03:45;;;;;;;10.18;9.18;;;6.80;99.90;;;;;;5125851;27;20204;-72
2020/12/06 09:06:15;;;;;;;13.15;9.75;;;6.80;99.90;;;;;;5133661;27;20284;-72
2020/12/06 09:08:42;;;;;;;9.38;8.48;;;6.80;99.90;;;;;;5134995;27;20239;-72
2020/12/06 09:11:14;;;;;;;9.30;8.38;;;6.90;99.90;;;;;;5116695;27;20639;-73
2020/12/06 09:13:40;;;;;;;11.93;8.52;;;6.80;99.90;;;;;;5120727;27;20633;-73
2020/12/06 09:16:06;;;;;;;13.38;8.45;;;6.80;99.90;;;;;;5151179;27;20210;-73
2020/12/06 09:18:33;;;;;;;12.80;9.23;;;6.80;99.90;;;;;;5156016;27;20234;-72
2020/12/06 09:20:59;;;;;;;10.57;8.45;;;6.80;99.90;;;;;;5129490;27;20201;-73
2020/12/06 09:23:25;;;;;;;8.40;7.50;;;6.80;99.90;;;;;;5114335;28;20629;-71
2020/12/06 09:25:52;;;;;;;9.85;7.63;;;6.80;99.90;;;;;;5130749;27;20293;-72
2020/12/06 09:28:20;;;;;;;10.23;8.45;;;6.80;99.90;;;;;;5134960;27;20192;-71
2020/12/06 09:30:46;;;;;;;11.80;8.68;;;6.80;99.90;;;;;;5119334;27;20212;-72
2020/12/06 09:33:12;;;;;;;11.00;8.02;;;6.80;99.90;;;;;;5114588;27;20193;-72
2020/12/06 09:35:39;;;;;;;12.52;8.32;;;6.80;99.90;;;;;;5115681;27;20284;-72
2020/12/06 09:38:05;;;;;;;8.90;8.00;;;6.80;99.90;;;;;;5114728;27;20240;-72
2020/12/06 09:40:31;;;;;;;9.43;8.52;;;6.80;99.90;;;;;;5114178;27;20215;-73
2020/12/06 09:42:58;;;;;;;11.75;8.35;;;6.80;99.90;;;;;;5129277;27;20227;-73
2020/12/06 09:45:24;;;;;;;10.60;8.30;;;6.80;99.90;;;;;;5114453;28;20226;-74
2020/12/06 09:47:51;;;;;;;10.38;8.32;;;6.90;99.90;;;;;;5122599;27;20191;-74
2020/12/06 09:50:17;;;;;;;12.13;8.35;;;6.80;99.90;;;;;;5114556;27;20203;-73
2020/12/06 09:52:43;;;;;;;10.50;8.35;;;6.90;99.90;;;;;;5114824;27;20218;-74
2020/12/06 09:55:09;;;;;;;11.75;8.27;;;6.90;99.90;;;;;;5118326;27;20199;-74
2020/12/06 09:57:36;;;;;;;10.93;7.70;;;6.80;99.90;;;;;;5118255;27;20656;-74
2020/12/06 10:00:04;;;;;;;9.98;8.07;;;6.90;99.90;;;;;;5114071;28;20235;-74
2020/12/06 10:02:30;;;;;;;9.80;7.93;;;6.80;99.90;;;;;;5115030;27;20197;-74
2020/12/06 10:04:56;;;;;;;9.55;7.40;;;6.80;99.90;;;;;;5118593;27;20616;-74
2020/12/06 10:07:24;;;;;;;9.77;8.02;;;6.80;99.90;;;;;;5119485;27;20203;-74
2020/12/06 10:09:50;;;;;;;10.00;8.13;;;6.80;99.90;;;;;;5120231;27;20283;-74
2020/12/06 10:12:17;;;;;;;10.15;8.07;;;6.80;99.90;;;;;;5113663;28;20192;-74
2020/12/06 10:14:43;;;;;;;10.40;8.82;;;6.80;99.90;;;;;;5113895;28;20201;-73
2020/12/06 10:17:10;;;;;;;9.13;7.40;;;6.80;99.90;;;;;;5129090;27;20188;-74
2020/12/06 10:19:36;;;;;;;8.63;7.72;;;6.80;99.90;;;;;;5133047;27;20209;-74
2020/12/06 10:22:03;;;;;;;10.23;9.13;;;6.80;99.90;;;;;;5132235;27;20215;-74
2020/12/06 10:24:29;;;;;;;9.55;7.70;;;6.80;99.90;;;;;;5115799;27;20193;-74
2020/12/06 10:26:56;;;;;;;10.13;7.57;;;6.80;99.90;;;;;;5112837;27;20234;-74
2020/12/06 10:29:24;;;;;;;8.50;6.95;;;6.80;99.90;;;;;;5123249;27;20199;-74
2020/12/06 10:31:51;;;;;;;9.68;8.60;;;6.80;99.90;;;;;;5126269;27;20218;-74
2020/12/06 10:34:19;;;;;;;10.95;7.82;;;6.90;99.90;;;;;;5133163;27;20683;-74
2020/12/06 10:36:49;;;;;;;10.77;7.93;;;6.90;99.90;;;;;;5121525;27;20185;-74
2020/12/06 10:39:16;;;;;;;8.85;6.93;;;6.80;99.90;;;;;;5127933;27;20310;-74
2020/12/06 10:41:42;;;;;;;12.57;9.02;;;6.90;99.90;;;;;;5112902;27;20192;-74
2020/12/06 10:44:08;;;;;;;13.27;9.57;;;6.90;99.90;;;;;;5112999;27;20207;-72
2020/12/06 10:46:34;;;;;;;8.57;7.35;;;6.80;99.90;;;;;;5126887;27;20202;-73
2020/12/06 10:49:01;;;;;;;10.05;7.78;;;6.80;99.90;;;;;;5126111;27;20197;-73
2020/12/06 10:51:28;;;;;;;11.15;9.63;;;6.80;99.90;;;;;;5112937;28;20193;-73
2020/12/06 10:53:54;;;;;;;11.00;8.80;;;6.80;99.90;;;;;;5113212;28;20189;-73
2020/12/06 10:56:21;;;;;;;11.05;8.93;;;6.90;99.90;;;;;;5124775;27;20191;-72
2020/12/06 10:58:48;;;;;;;11.95;8.25;;;6.80;99.90;;;;;;5123969;27;20217;-72
2020/12/06 11:01:14;;;;;;;13.13;9.10;;;6.80;99.90;;;;;;5113241;28;20249;-72
2020/12/06 11:03:40;;;;;;;12.23;8.93;;;6.80;99.90;;;;;;5112652;28;20212;-72
2020/12/06 11:06:07;;;;;;;8.38;7.20;;;6.80;99.90;;;;;;5124534;27;20218;-71
2020/12/06 11:08:34;;;;;;;13.15;9.30;;;6.90;99.90;;;;;;5112916;27;20871;-72
2020/12/06 11:11:00;;;;;;;10.30;9.20;;;6.90;99.90;;;;;;5112676;27;20222;-72
2020/12/06 11:13:26;;;;;;;10.98;8.27;;;6.90;99.90;;;;;;5112807;28;20208;-72
2020/12/06 11:15:52;;;;;;;10.27;9.10;;;6.90;99.90;;;;;;5113520;28;20185;-72
2020/12/06 11:18:19;;;;;;;10.27;8.02;;;7.00;99.90;;;;;;5122498;27;20208;-72
2020/12/06 11:20:45;;;;;;;11.15;7.72;;;6.90;99.90;;;;;;5113533;27;20204;-72
2020/12/06 11:23:11;;;;;;;10.55;8.25;;;6.90;99.90;;;;;;5118503;27;20223;-72
2020/12/06 11:25:41;;;;;;;11.13;8.80;;;6.90;99.90;;;;;;5132079;27;20191;-72
2020/12/06 11:28:07;;;;;;;11.30;8.90;;;6.90;99.90;;;;;;5116812;27;20200;-72
2020/12/06 11:30:33;;;;;;;13.95;9.38;;;6.90;99.90;;;;;;5112631;27;20189;-72
2020/12/06 11:33:00;;;;;;;11.02;8.02;;;7.00;99.90;;;;;;5112274;28;20204;-71
2020/12/06 11:35:26;;;;;;;8.50;7.55;;;7.00;99.90;;;;;;5116154;27;20223;-72
2020/12/06 11:37:52;;;;;;;11.75;8.68;;;7.00;99.90;;;;;;5112345;28;20249;-72
2020/12/06 11:40:19;;;;;;;11.75;8.85;;;7.00;99.90;;;;;;5112613;27;20228;-72
2020/12/06 11:42:46;;;;;;;10.90;8.43;;;7.00;99.90;;;;;;5132372;27;20248;-71
2020/12/06 11:45:13;;;;;;;10.23;8.07;;;7.00;99.90;;;;;;5128902;28;20665;-72
2020/12/06 11:47:39;;;;;;;9.55;7.45;;;7.10;99.90;;;;;;5118478;28;20651;-73
2020/12/06 11:50:06;;;;;;;10.85;8.45;;;7.10;99.90;;;;;;5135241;27;20644;-71
2020/12/06 11:52:32;;;;;;;11.73;8.15;;;7.00;99.90;;;;;;5132217;27;20199;-72
2020/12/06 11:54:59;;;;;;;10.07;8.55;;;7.00;99.90;;;;;;5138060;27;20196;-73
2020/12/06 11:57:25;;;;;;;10.25;8.85;;;7.00;99.90;;;;;;5137243;27;20206;-73
2020/12/06 11:59:52;;;;;;;10.05;8.40;;;7.00;99.90;;;;;;5133453;27;20216;-74
2020/12/06 12:02:18;;;;;;;15.75;7.93;;;7.00;99.90;;;;;;5136004;27;20192;-73
2020/12/06 12:04:45;;;;;;;14.90;8.88;;;7.00;99.90;;;;;;5130766;27;20202;-71
2020/12/06 12:07:12;;;;;;;11.25;8.35;;;7.00;99.90;;;;;;5135289;27;20213;-72
2020/12/06 12:09:38;;;;;;;12.35;7.85;;;7.00;99.90;;;;;;5133444;27;20619;-72
2020/12/06 12:12:04;;;;;;;11.35;10.10;;;7.10;99.90;;;;;;5138217;27;20192;-72
2020/12/06 12:14:31;;;;;;;10.05;8.63;;;7.00;99.90;;;;;;5132272;27;20632;-72
2020/12/06 12:16:58;;;;;;;11.90;9.25;;;7.00;99.90;;;;;;5118281;27;20207;-72
2020/12/06 12:19:24;;;;;;;10.93;8.00;;;7.00;99.90;;;;;;5121851;27;20215;-72
2020/12/06 12:21:50;;;;;;;11.05;8.90;;;7.00;99.90;;;;;;5139085;27;20191;-72
2020/12/06 12:24:16;;;;;;;12.25;9.57;;;7.10;99.90;;;;;;5132705;27;20196;-72
2020/12/06 12:26:43;;;;;;;11.80;8.27;;;7.10;99.90;;;;;;5123710;27;20213;-72
2020/12/06 12:29:09;;;;;;;11.20;8.90;;;7.10;99.90;;;;;;5118595;27;20580;-71
2020/12/06 12:31:35;;;;;;;10.98;8.25;;;7.20;99.90;;;;;;5130859;27;20196;-73
2020/12/06 12:34:02;;;;;;;9.60;7.70;;;7.10;99.90;;;;;;5125342;27;20203;-74
2020/12/06 12:36:30;;;;;;;10.60;7.63;;;7.10;99.90;;;;;;5136924;27;20192;-73
2020/12/06 12:38:56;;;;;;;10.27;8.00;;;7.10;99.90;;;;;;5129767;27;20243;-73
2020/12/06 12:41:23;;;;;;;8.95;8.07;;;7.10;99.90;;;;;;5124251;27;20200;-73
2020/12/06 12:43:49;;;;;;;8.80;7.90;;;7.10;99.90;;;;;;5119344;27;20211;-73
2020/12/06 12:46:20;;;;;;;10.20;8.38;;;7.10;99.90;;;;;;5138866;27;20632;-73
2020/12/06 12:48:46;;;;;;;10.98;8.10;;;7.10;99.90;;;;;;5121828;27;20203;-73
2020/12/06 12:51:16;;;;;;;9.18;7.30;;;7.10;99.90;;;;;;5127541;27;20193;-74